Coningsby, United Kingdom
Current Conditions -  °F | °C
As of 6:50 AM on Monday 24 Nov 2014 (Local Time) from EGXC Reporting Station
Clear Clear  
Wind Chill: 32°   Ceiling: Unl
Heat Index: 37°   Visibility: 6mi
Dew Point: 34°   Wind: 7mph
Humidity: 87%   Direction: 300°WNW
Pressure: 30.24"   Gusts: NA
Location:  53.11°N, 0.18°W
Report Text: EGXC 240650Z 30006KT CAVOK 03/01 Q1024 BLU TEMPO 6000 BR WHT
Loading
Personal Weather Stations






























Interactive Weather Map New forecast layout! Learn more

10-Day Weather Forecast

Advertisements
Track Severe Weather on mobile